createdAt,value
2023-03-25T00:02:27.441Z,4.28
2023-03-25T00:05:32.752Z,4.76
2023-03-25T00:08:38.585Z,4.70
2023-03-25T00:11:43.693Z,4.78
2023-03-25T00:14:54.855Z,4.24
2023-03-25T00:18:02.081Z,4.07
2023-03-25T00:21:10.867Z,4.15
2023-03-25T00:24:18.080Z,3.64
2023-03-25T00:27:23.364Z,3.68
2023-03-25T00:30:28.696Z,3.38
2023-03-25T00:33:35.579Z,3.34
2023-03-25T00:36:41.608Z,3.58
2023-03-25T00:39:47.051Z,3.53
2023-03-25T00:42:52.559Z,3.47
2023-03-25T00:45:58.164Z,3.20
2023-03-25T00:49:04.753Z,3.22
2023-03-25T00:52:12.174Z,3.30
2023-03-25T00:55:19.005Z,3.17
2023-03-25T00:58:24.111Z,3.45
2023-03-25T01:01:30.380Z,3.57
2023-03-25T01:04:41.621Z,3.37
2023-03-25T01:07:49.589Z,3.29
2023-03-25T01:10:55.209Z,3.56
2023-03-25T01:14:00.836Z,3.44
2023-03-25T01:17:06.418Z,3.33
2023-03-25T01:20:14.415Z,3.31
2023-03-25T01:23:19.536Z,3.43
2023-03-25T01:26:24.575Z,3.36
2023-03-25T01:29:29.902Z,3.08
2023-03-25T01:32:35.900Z,2.64
2023-03-25T01:35:43.120Z,3.01
2023-03-25T01:38:50.692Z,2.87
2023-03-25T01:41:58.687Z,3.20
2023-03-25T01:45:17.258Z,3.07
2023-03-25T01:48:26.284Z,2.68
2023-03-25T01:51:36.957Z,2.73
2023-03-25T01:54:42.265Z,2.71
2023-03-25T01:57:47.843Z,2.93
2023-03-25T02:00:55.099Z,2.82
2023-03-25T02:04:03.397Z,2.89
2023-03-25T02:07:11.552Z,2.87
2023-03-25T02:10:17.643Z,3.03
2023-03-25T02:13:23.388Z,2.77
2023-03-25T02:16:31.539Z,2.81
2023-03-25T02:20:09.126Z,2.85
2023-03-25T02:24:00.741Z,2.63
2023-03-25T02:27:46.159Z,3.09
2023-03-25T02:31:08.296Z,2.46
2023-03-25T02:34:39.396Z,2.55
2023-03-25T02:38:07.519Z,2.34
2023-03-25T02:41:20.859Z,2.36
2023-03-25T02:44:31.430Z,2.21
2023-03-25T02:47:38.248Z,2.17
2023-03-25T02:50:47.079Z,2.38
2023-03-25T02:53:54.178Z,2.28
2023-03-25T02:57:00.510Z,2.36
2023-03-25T03:00:15.537Z,2.46
2023-03-25T03:03:20.796Z,2.57
2023-03-25T03:06:27.429Z,2.25
2023-03-25T03:09:43.629Z,2.21
2023-03-25T03:12:58.773Z,1.91
2023-03-25T03:16:12.016Z,2.09
2023-03-25T03:19:27.619Z,2.07
2023-03-25T03:22:40.196Z,2.09
2023-03-25T03:25:51.222Z,2.53
2023-03-25T03:29:02.287Z,2.53
2023-03-25T03:32:11.566Z,2.20
2023-03-25T03:35:20.439Z,2.45
2023-03-25T03:38:28.616Z,2.25
2023-03-25T03:41:37.407Z,2.37
2023-03-25T03:44:44.752Z,2.49
2023-03-25T03:47:53.389Z,2.22
2023-03-25T03:51:01.944Z,2.20
2023-03-25T03:54:09.954Z,2.58
2023-03-25T03:57:21.033Z,2.09
2023-03-25T04:00:28.876Z,2.27
2023-03-25T04:03:39.048Z,1.94
2023-03-25T04:06:47.719Z,2.17
2023-03-25T04:09:58.065Z,2.25
2023-03-25T04:13:07.128Z,2.46
2023-03-25T04:16:14.974Z,2.78
2023-03-25T04:19:20.204Z,2.57
2023-03-25T04:22:25.375Z,2.33
2023-03-25T04:25:32.432Z,2.48
2023-03-25T04:28:41.988Z,2.44
2023-03-25T04:31:50.149Z,2.55
2023-03-25T04:34:57.759Z,2.30
2023-03-25T04:38:03.850Z,2.09
2023-03-25T04:41:10.777Z,2.14
2023-03-25T04:44:17.553Z,1.97
2023-03-25T04:47:24.969Z,2.10
2023-03-25T04:50:31.767Z,2.32
2023-03-25T04:53:36.931Z,2.30
2023-03-25T04:56:42.009Z,2.43
2023-03-25T04:59:48.612Z,2.28
2023-03-25T05:02:55.925Z,2.40
2023-03-25T05:06:01.192Z,2.57
2023-03-25T05:09:06.981Z,2.68
2023-03-25T05:12:14.297Z,2.45
2023-03-25T05:15:21.069Z,2.23
2023-03-25T05:18:26.510Z,2.44
2023-03-25T05:21:31.928Z,2.29
2023-03-25T05:24:37.247Z,2.31
2023-03-25T05:27:42.487Z,2.46
2023-03-25T05:30:49.496Z,2.18
2023-03-25T05:33:55.094Z,2.34
2023-03-25T05:37:00.716Z,2.16
2023-03-25T05:40:14.768Z,1.75
2023-03-25T05:43:23.090Z,2.08
2023-03-25T05:46:30.799Z,2.46
2023-03-25T05:49:36.121Z,2.29
2023-03-25T05:52:42.016Z,2.48
2023-03-25T05:55:51.236Z,2.36
2023-03-25T05:58:56.623Z,2.37
2023-03-25T06:02:03.887Z,1.89
2023-03-25T06:05:10.381Z,1.95
2023-03-25T06:08:17.249Z,1.73
2023-03-25T06:11:23.006Z,1.80
2023-03-25T06:14:28.490Z,2.14
2023-03-25T06:17:38.715Z,1.82
2023-03-25T06:20:47.117Z,2.10
2023-03-25T06:23:53.733Z,1.91
2023-03-25T06:26:59.185Z,1.66
2023-03-25T06:30:04.589Z,1.71
2023-03-25T06:33:14.177Z,1.78
2023-03-25T06:36:39.259Z,1.87
2023-03-25T06:39:49.814Z,2.15
2023-03-25T06:42:58.726Z,2.05
2023-03-25T06:46:35.362Z,1.63
2023-03-25T06:50:04.169Z,1.82
2023-03-25T06:53:09.479Z,1.75
2023-03-25T06:56:14.767Z,2.01
2023-03-25T06:59:20.002Z,2.18
2023-03-25T07:02:25.244Z,2.21
2023-03-25T07:05:32.051Z,2.33
2023-03-25T07:08:37.470Z,1.69
2023-03-25T07:11:42.644Z,1.67
2023-03-25T07:14:53.845Z,1.92
2023-03-25T07:17:59.147Z,2.38
2023-03-25T07:21:06.201Z,1.79
2023-03-25T07:24:13.077Z,1.62
2023-03-25T07:27:18.179Z,1.81
2023-03-25T07:30:32.858Z,1.81
2023-03-25T07:33:38.449Z,2.17
2023-03-25T07:36:45.272Z,1.75
2023-03-25T07:39:50.327Z,1.59
2023-03-25T07:42:55.710Z,1.67
2023-03-25T07:46:09.895Z,1.92
2023-03-25T07:49:15.110Z,2.03
2023-03-25T07:52:21.783Z,2.28
2023-03-25T07:55:26.990Z,2.41
2023-03-25T07:58:32.105Z,2.27
2023-03-25T08:01:37.413Z,2.18
2023-03-25T08:04:42.946Z,2.42
2023-03-25T08:07:49.561Z,2.43
2023-03-25T08:10:54.628Z,2.60
2023-03-25T08:13:59.828Z,2.81
2023-03-25T08:17:06.259Z,2.66
2023-03-25T08:20:13.296Z,2.73
2023-03-25T08:23:20.253Z,2.62
2023-03-25T08:26:25.661Z,2.83
2023-03-25T08:29:34.515Z,2.59
2023-03-25T08:32:40.516Z,2.73
2023-03-25T08:35:46.083Z,2.66
2023-03-25T08:38:53.473Z,2.63
2023-03-25T08:41:59.248Z,2.55
2023-03-25T08:45:04.991Z,2.80
2023-03-25T08:48:11.857Z,2.45
2023-03-25T08:51:16.678Z,2.52
2023-03-25T08:54:23.382Z,2.44
2023-03-25T08:57:28.548Z,2.45
2023-03-25T09:00:33.893Z,2.42
2023-03-25T09:03:41.012Z,2.63
2023-03-25T09:06:48.078Z,2.72
2023-03-25T09:10:15.167Z,2.63
2023-03-25T09:13:20.506Z,2.80
2023-03-25T09:16:25.802Z,2.80
2023-03-25T09:19:31.007Z,2.73
2023-03-25T09:22:36.350Z,2.72
2023-03-25T09:25:43.102Z,2.59
2023-03-25T09:28:48.273Z,2.58
2023-03-25T09:31:53.354Z,2.71
2023-03-25T09:34:58.449Z,2.70
2023-03-25T09:38:03.508Z,2.77
2023-03-25T09:41:29.712Z,2.79
2023-03-25T09:44:37.498Z,2.56
2023-03-25T09:47:45.980Z,2.80
2023-03-25T09:50:51.138Z,2.87
2023-03-25T09:53:59.964Z,2.60
2023-03-25T09:57:10.456Z,2.51
2023-03-25T10:00:19.971Z,2.67
2023-03-25T10:03:29.771Z,2.80
2023-03-25T10:06:38.050Z,2.77
2023-03-25T10:09:49.114Z,2.63
2023-03-25T10:13:03.263Z,2.70
2023-03-25T10:16:13.958Z,2.25
2023-03-25T10:19:32.427Z,2.64
2023-03-25T10:22:41.684Z,2.71
2023-03-25T10:25:48.876Z,2.65
2023-03-25T10:28:59.784Z,2.58
2023-03-25T10:32:08.906Z,2.54
2023-03-25T10:35:18.747Z,2.69
2023-03-25T10:38:25.073Z,2.41
2023-03-25T10:41:33.459Z,2.49
2023-03-25T10:44:39.932Z,2.66
2023-03-25T10:47:46.815Z,2.54
2023-03-25T10:50:53.182Z,2.63
2023-03-25T10:53:58.580Z,2.58
2023-03-25T10:57:05.365Z,2.56
2023-03-25T11:00:18.306Z,2.60
2023-03-25T11:03:26.636Z,2.43
2023-03-25T11:06:34.065Z,2.26
2023-03-25T11:09:39.192Z,2.50
2023-03-25T11:12:45.503Z,2.27
2023-03-25T11:15:55.133Z,2.17
2023-03-25T11:19:03.073Z,2.28
2023-03-25T11:22:12.665Z,2.26
2023-03-25T11:25:21.686Z,2.19
2023-03-25T11:28:37.629Z,2.21
2023-03-25T11:31:45.554Z,2.24
2023-03-25T11:34:52.520Z,2.36
2023-03-25T11:37:59.306Z,2.27
2023-03-25T11:41:04.971Z,2.28
2023-03-25T11:44:21.897Z,2.16
2023-03-25T11:47:31.655Z,2.20
2023-03-25T11:50:37.964Z,2.25
2023-03-25T11:53:46.595Z,2.20
2023-03-25T11:56:52.028Z,2.14
2023-03-25T12:00:08.308Z,2.04
2023-03-25T12:03:23.219Z,2.19
2023-03-25T12:06:30.136Z,2.06
2023-03-25T12:09:35.664Z,1.95
2023-03-25T12:12:44.909Z,2.11
2023-03-25T12:15:55.901Z,2.04
2023-03-25T12:19:13.131Z,2.13
2023-03-25T12:22:30.060Z,2.12
2023-03-25T12:25:53.896Z,2.10
2023-03-25T12:29:16.646Z,2.16
2023-03-25T12:32:28.737Z,2.06
2023-03-25T12:35:42.003Z,1.96
2023-03-25T12:38:55.076Z,1.90
2023-03-25T12:42:06.078Z,2.11
2023-03-25T12:45:34.726Z,1.82
2023-03-25T12:48:58.105Z,1.88
2023-03-25T12:52:08.865Z,1.63
2023-03-25T12:55:35.177Z,1.74
2023-03-25T12:59:11.049Z,1.88
2023-03-25T13:02:27.552Z,1.78
2023-03-25T13:05:37.547Z,1.82
2023-03-25T13:08:48.387Z,1.91
2023-03-25T13:11:55.933Z,1.85
2023-03-25T13:15:06.716Z,1.94
2023-03-25T13:18:15.254Z,1.82
2023-03-25T13:21:24.263Z,1.64
2023-03-25T13:24:36.869Z,1.73
2023-03-25T13:27:43.712Z,1.51
2023-03-25T13:30:50.071Z,1.51
2023-03-25T13:33:58.313Z,1.76
2023-03-25T13:37:10.259Z,1.80
2023-03-25T13:40:25.335Z,1.54
2023-03-25T13:43:34.921Z,1.70
2023-03-25T13:46:41.978Z,1.83
2023-03-25T13:49:51.747Z,1.88
2023-03-25T13:53:00.123Z,1.80
2023-03-25T13:56:34.969Z,1.95
2023-03-25T14:00:07.038Z,1.56
2023-03-25T14:03:42.291Z,1.78
2023-03-25T14:07:03.490Z,1.53
2023-03-25T14:10:30.513Z,1.90
2023-03-25T14:13:39.505Z,2.07
2023-03-25T14:16:46.992Z,1.80
2023-03-25T14:19:55.334Z,1.90
2023-03-25T14:23:03.184Z,1.99
2023-03-25T14:26:10.827Z,1.93
2023-03-25T14:29:38.506Z,1.49
2023-03-25T14:32:45.347Z,1.63
2023-03-25T14:35:51.987Z,1.73
2023-03-25T14:38:57.981Z,1.71
2023-03-25T14:42:04.836Z,1.53
2023-03-25T14:45:50.065Z,1.45
2023-03-25T14:49:21.194Z,1.41
2023-03-25T14:52:32.316Z,1.37
2023-03-25T14:55:43.441Z,1.51
2023-03-25T14:58:50.997Z,1.40
2023-03-25T15:01:57.288Z,1.45
2023-03-25T15:05:06.195Z,1.60
2023-03-25T15:08:17.776Z,1.52
2023-03-25T15:11:29.192Z,1.51
2023-03-25T15:14:37.430Z,1.58
2023-03-25T15:17:46.262Z,1.59
2023-03-25T15:20:53.030Z,1.67
2023-03-25T15:24:04.693Z,1.56
2023-03-25T15:27:16.428Z,1.54
2023-03-25T15:30:49.801Z,1.56
2023-03-25T15:34:04.749Z,1.53
2023-03-25T15:37:45.213Z,1.42
2023-03-25T15:41:03.317Z,1.25
2023-03-25T15:44:38.077Z,1.46
2023-03-25T15:47:55.683Z,1.48
2023-03-25T15:51:17.123Z,1.68
2023-03-25T15:54:38.522Z,1.68
2023-03-25T15:57:47.196Z,1.60
2023-03-25T16:00:55.285Z,1.57
2023-03-25T16:04:04.067Z,1.74
2023-03-25T16:07:10.197Z,1.59
2023-03-25T16:10:19.369Z,1.60
2023-03-25T16:13:24.934Z,1.34
2023-03-25T16:16:34.676Z,1.46
2023-03-25T16:19:42.523Z,1.45
2023-03-25T16:22:51.129Z,1.49
2023-03-25T16:25:57.688Z,1.43
2023-03-25T16:29:16.986Z,1.37
2023-03-25T16:32:24.354Z,1.45
2023-03-25T16:35:30.305Z,1.47
2023-03-25T16:38:35.657Z,1.43
2023-03-25T16:41:45.781Z,1.39
2023-03-25T16:44:50.938Z,1.39
2023-03-25T16:47:56.926Z,1.62
2023-03-25T16:51:07.184Z,1.62
2023-03-25T16:54:32.779Z,1.63
2023-03-25T16:57:40.908Z,1.69
2023-03-25T17:00:50.069Z,1.74
2023-03-25T17:04:09.552Z,1.62
2023-03-25T17:07:21.024Z,1.47
2023-03-25T17:10:28.707Z,1.59
2023-03-25T17:13:41.049Z,1.43
2023-03-25T17:16:48.411Z,1.39
2023-03-25T17:19:54.525Z,1.55
2023-03-25T17:23:03.282Z,1.65
2023-03-25T17:26:09.846Z,1.44
2023-03-25T17:29:18.223Z,1.60
2023-03-25T17:32:23.705Z,1.46
2023-03-25T17:35:32.874Z,1.27
2023-03-25T17:38:40.275Z,1.42
2023-03-25T17:41:46.075Z,1.41
2023-03-25T17:44:53.198Z,1.32
2023-03-25T17:47:58.366Z,1.32
2023-03-25T17:51:03.655Z,1.19
2023-03-25T17:54:09.286Z,1.22
2023-03-25T17:57:17.457Z,1.33
2023-03-25T18:00:24.101Z,1.03
2023-03-25T18:03:30.632Z,1.26
2023-03-25T18:06:35.913Z,1.21
2023-03-25T18:09:41.909Z,1.41
2023-03-25T18:12:47.254Z,1.22
2023-03-25T18:15:54.371Z,1.20
2023-03-25T18:18:59.569Z,1.15
2023-03-25T18:22:18.884Z,1.12
2023-03-25T18:25:25.374Z,0.98
2023-03-25T18:28:31.127Z,1.00
2023-03-25T18:31:37.747Z,0.92
2023-03-25T18:34:43.386Z,0.97
2023-03-25T18:37:48.922Z,1.08
2023-03-25T18:40:54.944Z,0.76
2023-03-25T18:44:00.197Z,0.86
2023-03-25T18:47:06.822Z,0.84
2023-03-25T18:50:20.555Z,0.94
2023-03-25T18:53:27.411Z,0.78
2023-03-25T18:56:33.024Z,0.72
2023-03-25T18:59:38.119Z,0.81
2023-03-25T19:02:44.655Z,0.73
2023-03-25T19:05:49.773Z,0.58
2023-03-25T19:08:56.361Z,0.45
2023-03-25T19:12:01.358Z,0.73
2023-03-25T19:15:07.383Z,0.52
2023-03-25T19:18:18.772Z,0.37
2023-03-25T19:21:24.360Z,0.64
2023-03-25T19:24:29.419Z,0.58
2023-03-25T19:27:34.576Z,0.55
2023-03-25T19:30:39.669Z,0.57
2023-03-25T19:33:46.376Z,0.70
2023-03-25T19:36:51.722Z,0.62
2023-03-25T19:39:56.819Z,0.65
2023-03-25T19:43:02.951Z,0.63
2023-03-25T19:46:08.616Z,0.35
2023-03-25T19:49:22.770Z,0.24
2023-03-25T19:52:34.221Z,0.39
2023-03-25T19:55:39.477Z,0.29
2023-03-25T19:58:44.678Z,0.49
2023-03-25T20:01:49.869Z,0.44
2023-03-25T20:04:56.264Z,0.22
2023-03-25T20:08:01.779Z,0.39
2023-03-25T20:11:12.134Z,0.56
2023-03-25T20:14:17.346Z,0.34
2023-03-25T20:17:22.476Z,0.60
2023-03-25T20:20:29.028Z,0.29
2023-03-25T20:23:34.119Z,0.39
2023-03-25T20:26:39.226Z,0.30
2023-03-25T20:29:44.698Z,0.24
2023-03-25T20:32:50.044Z,0.33
2023-03-25T20:35:56.677Z,0.31
2023-03-25T20:39:06.102Z,0.24
2023-03-25T20:42:12.401Z,0.46
2023-03-25T20:45:18.741Z,0.27
2023-03-25T20:48:25.325Z,0.35
2023-03-25T20:51:31.840Z,0.36
2023-03-25T20:54:38.055Z,0.23
2023-03-25T20:57:43.417Z,0.23
2023-03-25T21:00:48.688Z,0.27
2023-03-25T21:03:54.009Z,0.31
2023-03-25T21:07:01.061Z,0.33
2023-03-25T21:10:06.807Z,0.37
2023-03-25T21:13:13.924Z,0.29
2023-03-25T21:16:19.323Z,-0.03
2023-03-25T21:19:25.101Z,-0.13
2023-03-25T21:22:31.670Z,0.07
2023-03-25T21:25:37.477Z,-0.09
2023-03-25T21:28:42.800Z,-0.04
2023-03-25T21:31:48.182Z,-0.06
2023-03-25T21:34:54.375Z,0.04
2023-03-25T21:38:01.806Z,-0.03
2023-03-25T21:41:09.322Z,-0.12
2023-03-25T21:44:16.500Z,-0.02
2023-03-25T21:47:22.550Z,-0.09
2023-03-25T21:50:28.235Z,-0.14
2023-03-25T21:53:43.893Z,-0.25
2023-03-25T21:56:54.685Z,-0.06
2023-03-25T22:00:00.119Z,0.06
2023-03-25T22:03:06.542Z,-0.18
2023-03-25T22:06:31.738Z,-0.17
2023-03-25T22:09:38.360Z,-0.16
2023-03-25T22:12:43.389Z,-0.13
2023-03-25T22:15:48.497Z,-0.19
2023-03-25T22:18:53.630Z,-0.12
2023-03-25T22:21:58.794Z,-0.04
2023-03-25T22:25:06.317Z,-0.04
2023-03-25T22:28:14.455Z,-0.09
2023-03-25T22:31:20.638Z,-0.00
2023-03-25T22:34:28.716Z,0.12
2023-03-25T22:37:36.990Z,0.07
2023-03-25T22:40:43.707Z,0.27
2023-03-25T22:43:49.374Z,-0.08
2023-03-25T22:46:54.444Z,0.12
2023-03-25T22:49:59.548Z,-0.09
2023-03-25T22:53:04.700Z,-0.07
2023-03-25T22:56:12.034Z,-0.09
2023-03-25T22:59:17.536Z,0.08
2023-03-25T23:02:23.048Z,0.09
2023-03-25T23:05:28.598Z,-0.19
2023-03-25T23:08:35.784Z,-0.10
2023-03-25T23:11:42.593Z,0.06
2023-03-25T23:14:54.395Z,0.14
2023-03-25T23:17:59.850Z,0.19
2023-03-25T23:21:05.222Z,0.13
2023-03-25T23:24:11.832Z,-0.08
2023-03-25T23:27:18.681Z,0.13
2023-03-25T23:30:23.948Z,0.03
2023-03-25T23:33:29.118Z,0.02
2023-03-25T23:36:36.308Z,0.01
2023-03-25T23:39:42.156Z,0.08
2023-03-25T23:42:48.662Z,0.04
2023-03-25T23:45:54.169Z,-0.05
2023-03-25T23:49:02.434Z,0.09
2023-03-25T23:52:11.676Z,-0.20
2023-03-25T23:55:17.936Z,0.04
2023-03-25T23:58:25.529Z,-0.04
